sensor_id;sensor_type;location;lat;lon;timestamp;pressure;altitude;pressure_sealevel;temperature;humidity
78800;BME280;68148;55.328;86.106;2024-03-02T00:00:50;100394.06;;;-9.16;100.00
78800;BME280;68148;55.328;86.106;2024-03-02T00:03:18;100393.31;;;-9.21;100.00
78800;BME280;68148;55.328;86.106;2024-03-02T00:05:44;100402.91;;;-9.28;100.00
78800;BME280;68148;55.328;86.106;2024-03-02T00:08:26;100405.00;;;-9.41;99.34
78800;BME280;68148;55.328;86.106;2024-03-02T00:10:57;100406.03;;;-9.48;99.17
78800;BME280;68148;55.328;86.106;2024-03-02T00:13:23;100401.19;;;-9.57;99.48
78800;BME280;68148;55.328;86.106;2024-03-02T00:15:54;100408.16;;;-9.62;99.63
78800;BME280;68148;55.328;86.106;2024-03-02T00:20:55;100400.47;;;-9.62;99.75
78800;BME280;68148;55.328;86.106;2024-03-02T00:23:21;100410.78;;;-9.65;100.00
78800;BME280;68148;55.328;86.106;2024-03-02T00:25:53;100414.97;;;-9.63;100.00
78800;BME280;68148;55.328;86.106;2024-03-02T00:28:21;100411.34;;;-9.55;100.00
78800;BME280;68148;55.328;86.106;2024-03-02T00:31:11;100414.75;;;-9.55;100.00
78800;BME280;68148;55.328;86.106;2024-03-02T00:33:42;100412.81;;;-9.47;100.00
78800;BME280;68148;55.328;86.106;2024-03-02T00:36:08;100414.50;;;-9.46;100.00
78800;BME280;68148;55.328;86.106;2024-03-02T00:38:51;100413.78;;;-9.51;100.00
78800;BME280;68148;55.328;86.106;2024-03-02T00:41:27;100412.91;;;-9.50;100.00
78800;BME280;68148;55.328;86.106;2024-03-02T00:44:00;100416.94;;;-9.41;100.00
78800;BME280;68148;55.328;86.106;2024-03-02T00:46:42;100408.06;;;-9.29;100.00
78800;BME280;68148;55.328;86.106;2024-03-02T00:51:36;100415.63;;;-8.97;100.00
78800;BME280;68148;55.328;86.106;2024-03-02T00:54:27;100411.09;;;-8.89;100.00
78800;BME280;68148;55.328;86.106;2024-03-02T00:56:53;100417.50;;;-8.75;100.00
78800;BME280;68148;55.328;86.106;2024-03-02T00:59:19;100415.47;;;-8.64;100.00
78800;BME280;68148;55.328;86.106;2024-03-02T01:01:45;100403.31;;;-8.58;100.00
78800;BME280;68148;55.328;86.106;2024-03-02T01:04:11;100404.72;;;-8.49;100.00
78800;BME280;68148;55.328;86.106;2024-03-02T01:06:36;100408.03;;;-8.45;100.00
78800;BME280;68148;55.328;86.106;2024-03-02T01:09:02;100417.44;;;-8.46;100.00
78800;BME280;68148;55.328;86.106;2024-03-02T01:11:28;100415.53;;;-8.39;100.00
78800;BME280;68148;55.328;86.106;2024-03-02T01:13:54;100413.47;;;-8.29;100.00
78800;BME280;68148;55.328;86.106;2024-03-02T01:16:20;100415.81;;;-8.23;100.00
78800;BME280;68148;55.328;86.106;2024-03-02T01:18:47;100417.34;;;-8.18;100.00
78800;BME280;68148;55.328;86.106;2024-03-02T01:21:13;100414.81;;;-8.19;100.00
78800;BME280;68148;55.328;86.106;2024-03-02T01:23:39;100418.22;;;-8.19;100.00
78800;BME280;68148;55.328;86.106;2024-03-02T01:26:05;100423.19;;;-8.14;100.00
78800;BME280;68148;55.328;86.106;2024-03-02T01:28:31;100416.13;;;-8.08;100.00
78800;BME280;68148;55.328;86.106;2024-03-02T01:30:58;100424.41;;;-7.99;100.00
78800;BME280;68148;55.328;86.106;2024-03-02T01:33:24;100427.56;;;-7.93;100.00
78800;BME280;68148;55.328;86.106;2024-03-02T01:35:50;100427.38;;;-7.87;100.00
78800;BME280;68148;55.328;86.106;2024-03-02T01:38:16;100434.91;;;-7.82;100.00
78800;BME280;68148;55.328;86.106;2024-03-02T01:40:42;100433.06;;;-7.78;100.00
78800;BME280;68148;55.328;86.106;2024-03-02T01:43:08;100434.47;;;-7.70;100.00
78800;BME280;68148;55.328;86.106;2024-03-02T01:45:34;100433.41;;;-7.64;100.00
78800;BME280;68148;55.328;86.106;2024-03-02T01:48:00;100434.16;;;-7.61;100.00
78800;BME280;68148;55.328;86.106;2024-03-02T01:50:31;100440.13;;;-7.60;100.00
78800;BME280;68148;55.328;86.106;2024-03-02T01:52:57;100440.94;;;-7.60;100.00
78800;BME280;68148;55.328;86.106;2024-03-02T01:55:23;100438.19;;;-7.53;100.00
78800;BME280;68148;55.328;86.106;2024-03-02T01:57:50;100432.00;;;-7.48;100.00
78800;BME280;68148;55.328;86.106;2024-03-02T02:00:20;100438.63;;;-7.42;100.00
78800;BME280;68148;55.328;86.106;2024-03-02T02:02:48;100434.28;;;-7.40;100.00
78800;BME280;68148;55.328;86.106;2024-03-02T02:05:24;100434.22;;;-7.39;100.00
78800;BME280;68148;55.328;86.106;2024-03-02T02:07:50;100430.56;;;-7.32;100.00
78800;BME280;68148;55.328;86.106;2024-03-02T02:10:22;100431.22;;;-7.26;100.00
78800;BME280;68148;55.328;86.106;2024-03-02T02:12:48;100438.66;;;-7.20;100.00
78800;BME280;68148;55.328;86.106;2024-03-02T02:15:32;100438.56;;;-7.17;100.00
78800;BME280;68148;55.328;86.106;2024-03-02T02:17:58;100436.31;;;-7.03;100.00
78800;BME280;68148;55.328;86.106;2024-03-02T02:20:28;100432.53;;;-6.93;100.00
78800;BME280;68148;55.328;86.106;2024-03-02T02:22:57;100446.06;;;-6.89;100.00
78800;BME280;68148;55.328;86.106;2024-03-02T02:25:24;100446.72;;;-6.84;100.00
78800;BME280;68148;55.328;86.106;2024-03-02T02:27:53;100439.50;;;-6.74;100.00
78800;BME280;68148;55.328;86.106;2024-03-02T02:30:27;100444.38;;;-6.68;100.00
78800;BME280;68148;55.328;86.106;2024-03-02T02:32:54;100438.84;;;-6.58;100.00
78800;BME280;68148;55.328;86.106;2024-03-02T02:35:20;100443.91;;;-6.78;100.00
78800;BME280;68148;55.328;86.106;2024-03-02T02:37:48;100443.31;;;-6.63;100.00
78800;BME280;68148;55.328;86.106;2024-03-02T02:40:15;100441.94;;;-6.49;100.00
78800;BME280;68148;55.328;86.106;2024-03-02T02:42:41;100432.59;;;-6.50;100.00
78800;BME280;68148;55.328;86.106;2024-03-02T02:45:07;100438.72;;;-6.54;100.00
78800;BME280;68148;55.328;86.106;2024-03-02T02:47:33;100442.16;;;-6.56;100.00
78800;BME280;68148;55.328;86.106;2024-03-02T02:49:59;100439.84;;;-6.40;100.00
78800;BME280;68148;55.328;86.106;2024-03-02T02:52:25;100436.00;;;-6.30;100.00
78800;BME280;68148;55.328;86.106;2024-03-02T02:54:51;100434.44;;;-6.12;100.00
78800;BME280;68148;55.328;86.106;2024-03-02T02:57:18;100439.31;;;-6.06;100.00
78800;BME280;68148;55.328;86.106;2024-03-02T02:59:46;100441.72;;;-5.82;100.00
78800;BME280;68148;55.328;86.106;2024-03-02T03:02:12;100439.97;;;-5.82;100.00
78800;BME280;68148;55.328;86.106;2024-03-02T03:04:42;100443.50;;;-5.84;100.00
78800;BME280;68148;55.328;86.106;2024-03-02T03:07:07;100446.31;;;-5.70;100.00
78800;BME280;68148;55.328;86.106;2024-03-02T03:09:37;100451.00;;;-5.59;100.00
78800;BME280;68148;55.328;86.106;2024-03-02T03:12:03;100444.09;;;-5.77;100.00
78800;BME280;68148;55.328;86.106;2024-03-02T03:14:29;100449.28;;;-5.79;100.00
78800;BME280;68148;55.328;86.106;2024-03-02T03:16:58;100445.28;;;-6.05;100.00
78800;BME280;68148;55.328;86.106;2024-03-02T03:19:33;100452.38;;;-5.91;100.00
78800;BME280;68148;55.328;86.106;2024-03-02T03:22:02;100450.09;;;-5.97;100.00
78800;BME280;68148;55.328;86.106;2024-03-02T03:24:31;100448.66;;;-6.05;100.00
78800;BME280;68148;55.328;86.106;2024-03-02T03:27:00;100453.75;;;-6.03;100.00
78800;BME280;68148;55.328;86.106;2024-03-02T03:29:26;100446.88;;;-6.02;100.00
78800;BME280;68148;55.328;86.106;2024-03-02T03:31:52;100451.19;;;-6.03;100.00
78800;BME280;68148;55.328;86.106;2024-03-02T03:34:29;100454.53;;;-6.01;100.00
78800;BME280;68148;55.328;86.106;2024-03-02T03:36:57;100453.63;;;-6.00;100.00
78800;BME280;68148;55.328;86.106;2024-03-02T03:39:22;100461.84;;;-5.92;100.00
78800;BME280;68148;55.328;86.106;2024-03-02T03:41:49;100453.06;;;-5.88;99.91
78800;BME280;68148;55.328;86.106;2024-03-02T03:44:15;100453.00;;;-5.66;100.00
78800;BME280;68148;55.328;86.106;2024-03-02T03:46:41;100461.63;;;-5.67;98.90
78800;BME280;68148;55.328;86.106;2024-03-02T03:49:07;100464.09;;;-5.45;99.94
78800;BME280;68148;55.328;86.106;2024-03-02T03:51:33;100460.91;;;-5.31;99.65
78800;BME280;68148;55.328;86.106;2024-03-02T03:53:59;100460.53;;;-5.03;98.87
78800;BME280;68148;55.328;86.106;2024-03-02T03:56:28;100461.84;;;-4.94;97.92
78800;BME280;68148;55.328;86.106;2024-03-02T03:58:53;100458.38;;;-4.93;95.85
78800;BME280;68148;55.328;86.106;2024-03-02T04:01:27;100465.31;;;-4.76;96.57
78800;BME280;68148;55.328;86.106;2024-03-02T04:03:53;100458.41;;;-4.76;95.96
78800;BME280;68148;55.328;86.106;2024-03-02T04:06:19;100454.53;;;-4.66;94.94
78800;BME280;68148;55.328;86.106;2024-03-02T04:08:47;100458.97;;;-4.69;94.25
78800;BME280;68148;55.328;86.106;2024-03-02T04:11:17;100458.00;;;-4.67;94.37
78800;BME280;68148;55.328;86.106;2024-03-02T04:13:43;100456.28;;;-4.66;93.96
78800;BME280;68148;55.328;86.106;2024-03-02T04:16:23;100464.53;;;-4.60;93.42
78800;BME280;68148;55.328;86.106;2024-03-02T04:18:49;100464.28;;;-4.72;92.96
78800;BME280;68148;55.328;86.106;2024-03-02T04:21:28;100461.09;;;-4.96;93.64
78800;BME280;68148;55.328;86.106;2024-03-02T04:23:54;100457.66;;;-4.97;94.26
78800;BME280;68148;55.328;86.106;2024-03-02T04:26:20;100458.22;;;-4.90;93.54
78800;BME280;68148;55.328;86.106;2024-03-02T04:28:45;100464.50;;;-4.96;93.34
78800;BME280;68148;55.328;86.106;2024-03-02T04:31:14;100462.19;;;-5.02;94.12
78800;BME280;68148;55.328;86.106;2024-03-02T04:33:40;100461.72;;;-4.91;93.65
78800;BME280;68148;55.328;86.106;2024-03-02T04:36:06;100460.50;;;-4.84;93.45
78800;BME280;68148;55.328;86.106;2024-03-02T04:38:32;100466.53;;;-4.84;92.96
78800;BME280;68148;55.328;86.106;2024-03-02T04:40:58;100463.16;;;-4.86;91.58
78800;BME280;68148;55.328;86.106;2024-03-02T04:43:23;100464.06;;;-4.87;91.38
78800;BME280;68148;55.328;86.106;2024-03-02T04:45:49;100470.13;;;-4.88;91.18
78800;BME280;68148;55.328;86.106;2024-03-02T04:48:15;100476.66;;;-4.62;92.26
78800;BME280;68148;55.328;86.106;2024-03-02T04:50:41;100475.59;;;-4.58;91.57
78800;BME280;68148;55.328;86.106;2024-03-02T04:53:07;100469.56;;;-4.75;90.12
78800;BME280;68148;55.328;86.106;2024-03-02T04:55:33;100471.38;;;-4.78;91.37
78800;BME280;68148;55.328;86.106;2024-03-02T04:58:01;100479.50;;;-4.49;91.44
78800;BME280;68148;55.328;86.106;2024-03-02T05:00:27;100481.28;;;-4.32;91.29
78800;BME280;68148;55.328;86.106;2024-03-02T05:02:58;100479.69;;;-4.17;90.68
78800;BME280;68148;55.328;86.106;2024-03-02T05:05:24;100487.06;;;-4.10;90.28
78800;BME280;68148;55.328;86.106;2024-03-02T05:07:50;100483.78;;;-4.13;90.22
78800;BME280;68148;55.328;86.106;2024-03-02T05:10:16;100483.34;;;-4.04;90.38
78800;BME280;68148;55.328;86.106;2024-03-02T05:12:42;100482.41;;;-4.03;89.04
78800;BME280;68148;55.328;86.106;2024-03-02T05:15:08;100482.34;;;-4.19;88.29
78800;BME280;68148;55.328;86.106;2024-03-02T05:17:34;100484.28;;;-4.24;89.69
78800;BME280;68148;55.328;86.106;2024-03-02T05:20:00;100488.03;;;-4.12;89.31
78800;BME280;68148;55.328;86.106;2024-03-02T05:22:26;100490.97;;;-4.03;88.36
78800;BME280;68148;55.328;86.106;2024-03-02T05:24:51;100490.13;;;-4.20;87.88
78800;BME280;68148;55.328;86.106;2024-03-02T05:27:17;100488.84;;;-4.12;89.14
78800;BME280;68148;55.328;86.106;2024-03-02T05:29:43;100480.28;;;-4.12;87.60
78800;BME280;68148;55.328;86.106;2024-03-02T05:32:09;100477.13;;;-3.83;87.66
78800;BME280;68148;55.328;86.106;2024-03-02T05:34:35;100478.72;;;-3.63;88.21
78800;BME280;68148;55.328;86.106;2024-03-02T05:37:01;100475.22;;;-3.62;87.35
78800;BME280;68148;55.328;86.106;2024-03-02T05:39:27;100478.75;;;-3.64;87.34
78800;BME280;68148;55.328;86.106;2024-03-02T05:41:53;100482.78;;;-3.59;86.68
78800;BME280;68148;55.328;86.106;2024-03-02T05:44:19;100477.25;;;-3.86;86.12
78800;BME280;68148;55.328;86.106;2024-03-02T05:46:48;100475.31;;;-3.81;87.32
78800;BME280;68148;55.328;86.106;2024-03-02T05:49:14;100474.53;;;-3.65;87.03
78800;BME280;68148;55.328;86.106;2024-03-02T05:51:40;100478.22;;;-3.54;86.76
78800;BME280;68148;55.328;86.106;2024-03-02T05:54:08;100470.47;;;-3.36;86.06
78800;BME280;68148;55.328;86.106;2024-03-02T05:56:35;100480.59;;;-3.16;85.26
78800;BME280;68148;55.328;86.106;2024-03-02T05:59:00;100481.56;;;-3.18;84.40
78800;BME280;68148;55.328;86.106;2024-03-02T06:01:27;100476.72;;;-3.24;85.06
78800;BME280;68148;55.328;86.106;2024-03-02T06:03:52;100474.09;;;-2.91;85.37
78800;BME280;68148;55.328;86.106;2024-03-02T06:06:18;100477.78;;;-2.80;83.82
78800;BME280;68148;55.328;86.106;2024-03-02T06:08:44;100472.53;;;-2.62;83.97
78800;BME280;68148;55.328;86.106;2024-03-02T06:11:10;100469.25;;;-2.50;83.36
78800;BME280;68148;55.328;86.106;2024-03-02T06:13:35;100473.25;;;-2.44;83.36
78800;BME280;68148;55.328;86.106;2024-03-02T06:16:04;100465.91;;;-2.36;82.41
78800;BME280;68148;55.328;86.106;2024-03-02T06:18:33;100461.06;;;-2.27;82.51
78800;BME280;68148;55.328;86.106;2024-03-02T06:21:10;100462.81;;;-1.67;81.12
78800;BME280;68148;55.328;86.106;2024-03-02T06:23:36;100474.47;;;-1.45;80.79
78800;BME280;68148;55.328;86.106;2024-03-02T06:26:02;100477.50;;;-1.53;79.38
78800;BME280;68148;55.328;86.106;2024-03-02T06:28:28;100474.00;;;-1.52;80.93
78800;BME280;68148;55.328;86.106;2024-03-02T06:30:53;100487.34;;;-1.74;80.95
78800;BME280;68148;55.328;86.106;2024-03-02T06:33:19;100473.97;;;-1.66;80.15
78800;BME280;68148;55.328;86.106;2024-03-02T06:35:45;100478.84;;;-1.76;80.34
78800;BME280;68148;55.328;86.106;2024-03-02T06:38:11;100482.63;;;-1.82;80.42
78800;BME280;68148;55.328;86.106;2024-03-02T06:40:37;100478.44;;;-2.14;81.71
78800;BME280;68148;55.328;86.106;2024-03-02T06:43:02;100481.00;;;-2.29;82.11
78800;BME280;68148;55.328;86.106;2024-03-02T06:45:28;100489.13;;;-2.05;82.03
78800;BME280;68148;55.328;86.106;2024-03-02T06:47:54;100473.53;;;-1.89;82.15
78800;BME280;68148;55.328;86.106;2024-03-02T06:50:20;100471.88;;;-1.90;81.77
78800;BME280;68148;55.328;86.106;2024-03-02T06:52:46;100476.09;;;-1.59;81.44
78800;BME280;68148;55.328;86.106;2024-03-02T06:55:18;100472.00;;;-1.77;80.63
78800;BME280;68148;55.328;86.106;2024-03-02T06:57:44;100471.81;;;-1.88;81.36
78800;BME280;68148;55.328;86.106;2024-03-02T07:00:17;100476.22;;;-2.20;81.47
78800;BME280;68148;55.328;86.106;2024-03-02T07:02:42;100464.44;;;-2.10;81.73
78800;BME280;68148;55.328;86.106;2024-03-02T07:05:08;100462.38;;;-2.19;82.47
78800;BME280;68148;55.328;86.106;2024-03-02T07:07:34;100464.50;;;-1.82;82.91
78800;BME280;68148;55.328;86.106;2024-03-02T07:10:00;100460.59;;;-1.44;81.35
78800;BME280;68148;55.328;86.106;2024-03-02T07:12:26;100466.22;;;-1.38;81.99
78800;BME280;68148;55.328;86.106;2024-03-02T07:14:52;100471.22;;;-1.06;80.61
78800;BME280;68148;55.328;86.106;2024-03-02T07:17:18;100470.13;;;-1.31;80.61
78800;BME280;68148;55.328;86.106;2024-03-02T07:19:44;100474.47;;;-1.31;80.94
78800;BME280;68148;55.328;86.106;2024-03-02T07:22:10;100472.88;;;-1.48;80.64
78800;BME280;68148;55.328;86.106;2024-03-02T07:24:43;100471.69;;;-1.42;81.40
78800;BME280;68148;55.328;86.106;2024-03-02T07:27:12;100485.00;;;-1.34;80.50
78800;BME280;68148;55.328;86.106;2024-03-02T07:29:39;100478.63;;;-1.57;81.22
78800;BME280;68148;55.328;86.106;2024-03-02T07:32:06;100486.09;;;-1.53;80.74
78800;BME280;68148;55.328;86.106;2024-03-02T07:34:32;100491.75;;;-1.32;79.81
78800;BME280;68148;55.328;86.106;2024-03-02T07:36:58;100480.38;;;-1.43;79.94
78800;BME280;68148;55.328;86.106;2024-03-02T07:39:26;100469.84;;;-1.40;80.33
78800;BME280;68148;55.328;86.106;2024-03-02T07:41:53;100476.03;;;-1.29;78.82
78800;BME280;68148;55.328;86.106;2024-03-02T07:44:19;100478.44;;;-1.40;79.23
78800;BME280;68148;55.328;86.106;2024-03-02T07:46:46;100477.97;;;-1.61;79.28
78800;BME280;68148;55.328;86.106;2024-03-02T07:49:12;100462.41;;;-1.75;79.30
78800;BME280;68148;55.328;86.106;2024-03-02T07:51:38;100474.81;;;-1.52;78.43
78800;BME280;68148;55.328;86.106;2024-03-02T07:54:10;100470.41;;;-1.49;77.88
78800;BME280;68148;55.328;86.106;2024-03-02T07:56:36;100476.59;;;-1.52;78.42
78800;BME280;68148;55.328;86.106;2024-03-02T07:59:03;100476.41;;;-1.35;77.52
78800;BME280;68148;55.328;86.106;2024-03-02T08:01:31;100475.03;;;-1.40;77.06
78800;BME280;68148;55.328;86.106;2024-03-02T08:03:58;100467.91;;;-1.22;76.70
78800;BME280;68148;55.328;86.106;2024-03-02T08:06:25;100471.00;;;-1.03;76.31
78800;BME280;68148;55.328;86.106;2024-03-02T08:08:52;100469.63;;;-0.94;76.08
78800;BME280;68148;55.328;86.106;2024-03-02T08:11:18;100484.66;;;-1.28;76.82
78800;BME280;68148;55.328;86.106;2024-03-02T08:13:43;100472.25;;;-1.23;77.43
78800;BME280;68148;55.328;86.106;2024-03-02T08:16:09;100473.28;;;-1.11;76.42
78800;BME280;68148;55.328;86.106;2024-03-02T08:18:35;100467.88;;;-1.65;76.90
78800;BME280;68148;55.328;86.106;2024-03-02T08:21:01;100468.03;;;-1.83;78.19
78800;BME280;68148;55.328;86.106;2024-03-02T08:23:27;100469.16;;;-1.72;77.63
78800;BME280;68148;55.328;86.106;2024-03-02T08:25:54;100476.88;;;-1.87;77.42
78800;BME280;68148;55.328;86.106;2024-03-02T08:28:20;100468.31;;;-2.17;78.64
78800;BME280;68148;55.328;86.106;2024-03-02T08:30:45;100475.53;;;-2.08;78.27
78800;BME280;68148;55.328;86.106;2024-03-02T08:33:11;100476.19;;;-2.35;79.25
78800;BME280;68148;55.328;86.106;2024-03-02T08:35:39;100472.56;;;-2.32;79.30
78800;BME280;68148;55.328;86.106;2024-03-02T08:38:05;100487.22;;;-2.17;79.53
78800;BME280;68148;55.328;86.106;2024-03-02T08:40:42;100487.78;;;-1.96;79.48
78800;BME280;68148;55.328;86.106;2024-03-02T08:43:17;100483.88;;;-1.89;78.86
78800;BME280;68148;55.328;86.106;2024-03-02T08:45:44;100490.25;;;-1.64;78.61
78800;BME280;68148;55.328;86.106;2024-03-02T08:48:19;100493.88;;;-1.97;78.64
78800;BME280;68148;55.328;86.106;2024-03-02T08:50:45;100490.47;;;-2.13;77.57
78800;BME280;68148;55.328;86.106;2024-03-02T08:53:10;100490.84;;;-2.35;78.29
78800;BME280;68148;55.328;86.106;2024-03-02T08:55:36;100489.38;;;-2.55;78.86
78800;BME280;68148;55.328;86.106;2024-03-02T08:58:02;100501.97;;;-2.65;79.34
78800;BME280;68148;55.328;86.106;2024-03-02T09:00:28;100487.69;;;-2.72;80.17
78800;BME280;68148;55.328;86.106;2024-03-02T09:02:54;100497.13;;;-2.55;80.29
78800;BME280;68148;55.328;86.106;2024-03-02T09:05:20;100496.69;;;-2.47;80.17
78800;BME280;68148;55.328;86.106;2024-03-02T09:07:48;100502.44;;;-2.42;79.85
78800;BME280;68148;55.328;86.106;2024-03-02T09:10:14;100503.22;;;-2.10;79.44
78800;BME280;68148;55.328;86.106;2024-03-02T09:12:39;100517.69;;;-2.22;78.99
78800;BME280;68148;55.328;86.106;2024-03-02T09:15:06;100504.00;;;-2.24;78.33
78800;BME280;68148;55.328;86.106;2024-03-02T09:17:33;100507.50;;;-2.09;78.85
78800;BME280;68148;55.328;86.106;2024-03-02T09:19:59;100512.94;;;-2.14;78.01
78800;BME280;68148;55.328;86.106;2024-03-02T09:22:25;100505.75;;;-2.40;78.46
78800;BME280;68148;55.328;86.106;2024-03-02T09:24:51;100506.22;;;-2.48;78.47
78800;BME280;68148;55.328;86.106;2024-03-02T09:27:16;100505.53;;;-2.67;79.49
78800;BME280;68148;55.328;86.106;2024-03-02T09:29:42;100508.13;;;-2.67;79.70
78800;BME280;68148;55.328;86.106;2024-03-02T09:32:12;100516.22;;;-2.73;79.51
78800;BME280;68148;55.328;86.106;2024-03-02T09:34:38;100507.19;;;-2.98;80.38
78800;BME280;68148;55.328;86.106;2024-03-02T09:37:04;100512.00;;;-3.08;80.71
78800;BME280;68148;55.328;86.106;2024-03-02T09:39:35;100507.91;;;-3.12;80.86
78800;BME280;68148;55.328;86.106;2024-03-02T09:42:03;100511.47;;;-3.14;80.92
78800;BME280;68148;55.328;86.106;2024-03-02T09:44:30;100505.22;;;-3.43;81.56
78800;BME280;68148;55.328;86.106;2024-03-02T09:46:56;100506.59;;;-3.36;82.09
78800;BME280;68148;55.328;86.106;2024-03-02T09:49:22;100514.44;;;-3.22;82.03
78800;BME280;68148;55.328;86.106;2024-03-02T09:51:49;100505.31;;;-3.12;80.74
78800;BME280;68148;55.328;86.106;2024-03-02T09:54:16;100507.31;;;-3.17;80.85
78800;BME280;68148;55.328;86.106;2024-03-02T09:56:42;100521.78;;;-3.14;81.02
78800;BME280;68148;55.328;86.106;2024-03-02T09:59:08;100516.69;;;-2.98;80.33
78800;BME280;68148;55.328;86.106;2024-03-02T10:01:34;100514.06;;;-3.14;79.28
78800;BME280;68148;55.328;86.106;2024-03-02T10:04:01;100508.09;;;-2.99;78.74
78800;BME280;68148;55.328;86.106;2024-03-02T10:06:28;100513.75;;;-3.08;79.69
78800;BME280;68148;55.328;86.106;2024-03-02T10:08:55;100512.13;;;-3.44;80.06
78800;BME280;68148;55.328;86.106;2024-03-02T10:11:30;100512.94;;;-3.59;79.64
78800;BME280;68148;55.328;86.106;2024-03-02T10:14:10;100523.16;;;-3.58;79.14
78800;BME280;68148;55.328;86.106;2024-03-02T10:16:37;100527.78;;;-3.64;78.70
78800;BME280;68148;55.328;86.106;2024-03-02T10:19:20;100524.69;;;-3.71;79.21
78800;BME280;68148;55.328;86.106;2024-03-02T10:21:55;100529.00;;;-3.71;78.84
78800;BME280;68148;55.328;86.106;2024-03-02T10:24:24;100520.59;;;-3.75;79.30
78800;BME280;68148;55.328;86.106;2024-03-02T10:26:51;100536.13;;;-3.94;80.21
78800;BME280;68148;55.328;86.106;2024-03-02T10:29:18;100525.41;;;-3.86;80.58
78800;BME280;68148;55.328;86.106;2024-03-02T10:31:45;100536.88;;;-3.92;80.96
78800;BME280;68148;55.328;86.106;2024-03-02T10:34:16;100531.47;;;-4.05;81.38
78800;BME280;68148;55.328;86.106;2024-03-02T10:36:43;100529.88;;;-4.07;81.49
78800;BME280;68148;55.328;86.106;2024-03-02T10:39:09;100535.81;;;-4.24;81.66
78800;BME280;68148;55.328;86.106;2024-03-02T10:41:36;100525.78;;;-4.11;81.71
78800;BME280;68148;55.328;86.106;2024-03-02T10:44:07;100523.00;;;-4.07;81.90
78800;BME280;68148;55.328;86.106;2024-03-02T10:46:35;100526.25;;;-4.03;81.67
78800;BME280;68148;55.328;86.106;2024-03-02T10:49:03;100534.44;;;-3.95;81.25
78800;BME280;68148;55.328;86.106;2024-03-02T10:51:32;100528.34;;;-4.11;81.67
78800;BME280;68148;55.328;86.106;2024-03-02T10:54:04;100535.34;;;-4.13;81.36
78800;BME280;68148;55.328;86.106;2024-03-02T10:56:44;100528.06;;;-4.41;82.38
78800;BME280;68148;55.328;86.106;2024-03-02T11:01:43;100534.69;;;-4.55;83.68
78800;BME280;68148;55.328;86.106;2024-03-02T11:04:10;100535.25;;;-4.67;83.65
78800;BME280;68148;55.328;86.106;2024-03-02T11:06:40;100538.72;;;-4.68;83.49
78800;BME280;68148;55.328;86.106;2024-03-02T11:09:10;100533.84;;;-4.55;83.25
78800;BME280;68148;55.328;86.106;2024-03-02T11:11:40;100546.81;;;-4.57;83.18
78800;BME280;68148;55.328;86.106;2024-03-02T11:14:14;100541.09;;;-4.63;83.08
78800;BME280;68148;55.328;86.106;2024-03-02T11:16:42;100526.97;;;-4.73;83.34
78800;BME280;68148;55.328;86.106;2024-03-02T11:19:11;100535.00;;;-4.80;84.38
78800;BME280;68148;55.328;86.106;2024-03-02T11:21:38;100531.97;;;-4.89;84.71
78800;BME280;68148;55.328;86.106;2024-03-02T11:26:48;100549.03;;;-4.87;84.68
78800;BME280;68148;55.328;86.106;2024-03-02T11:32:02;100535.28;;;-5.06;84.45
78800;BME280;68148;55.328;86.106;2024-03-02T11:34:36;100538.38;;;-5.18;84.63
78800;BME280;68148;55.328;86.106;2024-03-02T11:37:03;100543.69;;;-5.21;84.39
78800;BME280;68148;55.328;86.106;2024-03-02T11:39:29;100542.47;;;-5.33;84.32
78800;BME280;68148;55.328;86.106;2024-03-02T11:41:58;100549.75;;;-5.43;85.08
78800;BME280;68148;55.328;86.106;2024-03-02T11:44:27;100545.84;;;-5.51;84.82
78800;BME280;68148;55.328;86.106;2024-03-02T11:46:59;100547.19;;;-5.63;84.89
78800;BME280;68148;55.328;86.106;2024-03-02T11:49:48;100542.94;;;-5.64;85.03
78800;BME280;68148;55.328;86.106;2024-03-02T11:52:15;100538.38;;;-5.78;85.36
78800;BME280;68148;55.328;86.106;2024-03-02T11:54:43;100547.03;;;-5.81;85.56
78800;BME280;68148;55.328;86.106;2024-03-02T11:57:10;100535.31;;;-5.88;85.14
78800;BME280;68148;55.328;86.106;2024-03-02T11:59:36;100545.00;;;-5.93;85.67
78800;BME280;68148;55.328;86.106;2024-03-02T12:02:02;100542.72;;;-6.00;86.03
78800;BME280;68148;55.328;86.106;2024-03-02T12:04:29;100543.88;;;-6.08;86.80
78800;BME280;68148;55.328;86.106;2024-03-02T12:06:56;100550.63;;;-6.05;86.74
78800;BME280;68148;55.328;86.106;2024-03-02T12:09:22;100548.03;;;-6.05;86.96
78800;BME280;68148;55.328;86.106;2024-03-02T12:11:49;100543.91;;;-6.09;87.46
78800;BME280;68148;55.328;86.106;2024-03-02T12:14:26;100542.25;;;-6.10;87.39
78800;BME280;68148;55.328;86.106;2024-03-02T12:16:52;100543.38;;;-6.17;87.91
78800;BME280;68148;55.328;86.106;2024-03-02T12:19:18;100552.81;;;-6.18;87.76
78800;BME280;68148;55.328;86.106;2024-03-02T12:21:44;100545.09;;;-6.16;87.51
78800;BME280;68148;55.328;86.106;2024-03-02T12:24:10;100548.66;;;-6.20;87.41
78800;BME280;68148;55.328;86.106;2024-03-02T12:26:36;100542.00;;;-6.26;87.80
78800;BME280;68148;55.328;86.106;2024-03-02T12:29:02;100551.44;;;-6.26;88.12
78800;BME280;68148;55.328;86.106;2024-03-02T12:31:27;100551.34;;;-6.23;87.94
78800;BME280;68148;55.328;86.106;2024-03-02T12:33:54;100553.25;;;-6.28;88.00
78800;BME280;68148;55.328;86.106;2024-03-02T12:36:20;100554.31;;;-6.34;88.03
78800;BME280;68148;55.328;86.106;2024-03-02T12:38:47;100550.91;;;-6.35;89.31
78800;BME280;68148;55.328;86.106;2024-03-02T12:41:16;100558.75;;;-6.38;89.99
78800;BME280;68148;55.328;86.106;2024-03-02T12:43:42;100560.63;;;-6.43;89.85
78800;BME280;68148;55.328;86.106;2024-03-02T12:46:08;100561.78;;;-6.50;90.99
78800;BME280;68148;55.328;86.106;2024-03-02T12:48:35;100564.53;;;-6.54;90.74
78800;BME280;68148;55.328;86.106;2024-03-02T12:51:01;100562.25;;;-6.62;91.55
78800;BME280;68148;55.328;86.106;2024-03-02T12:53:28;100570.13;;;-6.67;91.23